Time;durP1;ratioP1;P1;durP2;ratioP2;P2;SDS_P1;SDS_P2;PMS_P1;PMS_P2;Temp;Humidity;BMP_temperature;BMP_pressure;BME280_temperature;BME280_humidity;BME280_pressure;Samples;Min_cycle;Max_cycle;Signal;HPM_P1;HPM_P2
2021/06/29 00:00:34;;;;;;;0.20;0.20;;;14.10;79.60;;;;;;5034799;28;20120;-80
2021/06/29 00:03:07;;;;;;;0.22;0.20;;;14.10;79.30;;;;;;5054896;28;20035;-80
2021/06/29 00:05:36;;;;;;;0.20;0.20;;;14.10;79.10;;;;;;5055261;28;20140;-80
2021/06/29 00:08:02;;;;;;;0.30;0.30;;;14.10;79.40;;;;;;5055009;28;20391;-80
2021/06/29 00:10:29;;;;;;;0.20;0.20;;;14.10;79.40;;;;;;5052136;28;20128;-80
2021/06/29 00:12:55;;;;;;;0.30;0.30;;;14.10;79.20;;;;;;5054904;28;20025;-81
2021/06/29 00:15:23;;;;;;;0.20;0.20;;;14.10;78.80;;;;;;5055003;28;20031;-80
2021/06/29 00:17:50;;;;;;;0.30;0.30;;;14.10;78.90;;;;;;5053681;28;20032;-80
2021/06/29 00:20:16;;;;;;;0.20;0.20;;;14.00;78.90;;;;;;5054728;28;20032;-80
2021/06/29 00:22:43;;;;;;;0.20;0.20;;;14.00;79.10;;;;;;5033348;28;20082;-80
2021/06/29 00:25:10;;;;;;;0.30;0.30;;;14.00;79.00;;;;;;5053447;28;20017;-80
2021/06/29 00:27:36;;;;;;;0.20;0.20;;;13.80;79.40;;;;;;5052553;28;20599;-80
2021/06/29 00:30:03;;;;;;;0.30;0.30;;;13.80;79.30;;;;;;5036761;28;20048;-80
2021/06/29 00:32:29;;;;;;;0.25;0.25;;;13.80;79.10;;;;;;5049240;28;20043;-80
2021/06/29 00:34:54;;;;;;;0.30;0.30;;;13.80;78.90;;;;;;5055110;28;20566;-80
2021/06/29 00:37:20;;;;;;;0.35;0.25;;;13.70;79.30;;;;;;5051997;28;20040;-80
2021/06/29 00:39:46;;;;;;;0.30;0.30;;;13.70;79.10;;;;;;5055011;28;20031;-80
2021/06/29 00:42:11;;;;;;;0.30;0.30;;;13.70;79.20;;;;;;5054915;28;20029;-79
2021/06/29 00:44:37;;;;;;;0.30;0.30;;;13.70;79.00;;;;;;5041630;28;20563;-80
2021/06/29 00:47:03;;;;;;;0.30;0.30;;;13.70;78.90;;;;;;5054665;28;20057;-80
2021/06/29 00:49:29;;;;;;;0.30;0.30;;;13.70;79.00;;;;;;5055196;28;20499;-80
2021/06/29 00:51:54;;;;;;;0.35;0.30;;;13.60;79.10;;;;;;5040915;28;20035;-80
2021/06/29 00:54:20;;;;;;;0.30;0.30;;;13.60;79.40;;;;;;5047457;28;20121;-80
2021/06/29 00:56:46;;;;;;;0.30;0.30;;;13.60;79.30;;;;;;5058680;28;20105;-80
2021/06/29 00:59:15;;;;;;;0.30;0.30;;;13.70;79.50;;;;;;5044190;28;20123;-80
2021/06/29 01:01:41;;;;;;;0.30;0.30;;;13.60;79.70;;;;;;5058421;28;20135;-80
2021/06/29 01:04:06;;;;;;;0.30;0.30;;;13.60;80.60;;;;;;5058455;28;20056;-80
2021/06/29 01:06:32;;;;;;;0.30;0.30;;;13.50;80.60;;;;;;5056335;28;20029;-79
2021/06/29 01:08:58;;;;;;;0.30;0.30;;;13.50;80.30;;;;;;5051442;28;20029;-80
2021/06/29 01:11:24;;;;;;;0.28;0.28;;;13.60;79.90;;;;;;5034117;28;20029;-80
2021/06/29 01:13:50;;;;;;;0.30;0.30;;;13.50;80.30;;;;;;5058310;28;20021;-80
2021/06/29 01:16:16;;;;;;;0.30;0.30;;;13.60;79.60;;;;;;5051217;28;20507;-79
2021/06/29 01:18:44;;;;;;;0.40;0.30;;;13.60;79.70;;;;;;5058117;28;20086;-79
2021/06/29 01:21:19;;;;;;;0.30;0.30;;;13.60;79.50;;;;;;5054798;28;20060;-80
2021/06/29 01:23:54;;;;;;;0.30;0.30;;;13.60;79.70;;;;;;5045057;28;20024;-80
2021/06/29 01:26:26;;;;;;;0.57;0.38;;;13.60;79.30;;;;;;5057937;28;20032;-80
2021/06/29 01:31:18;;;;;;;0.30;0.30;;;13.50;79.70;;;;;;5054065;28;20021;-80
2021/06/29 01:33:44;;;;;;;0.45;0.30;;;13.50;80.00;;;;;;5057850;28;20544;-80
2021/06/29 01:36:15;;;;;;;0.50;0.30;;;13.40;80.40;;;;;;5054391;28;20033;-80
2021/06/29 01:38:50;;;;;;;0.55;0.30;;;13.40;80.90;;;;;;5056538;28;20111;-80
2021/06/29 01:41:19;;;;;;;0.68;0.35;;;13.30;81.00;;;;;;5057705;28;20100;-79
2021/06/29 01:46:33;;;;;;;1.63;0.50;;;13.30;81.60;;;;;;5052526;28;20092;-79
2021/06/29 01:48:59;;;;;;;1.10;0.40;;;13.20;81.50;;;;;;5053058;28;20470;-80
2021/06/29 01:51:24;;;;;;;1.45;0.50;;;13.20;81.90;;;;;;5057687;28;20112;-80
2021/06/29 01:53:52;;;;;;;0.60;0.40;;;13.10;82.10;;;;;;5042814;28;20037;-80
2021/06/29 01:56:22;;;;;;;0.80;0.40;;;13.10;82.00;;;;;;5057467;28;20487;-80
2021/06/29 01:59:01;;;;;;;0.75;0.50;;;13.00;82.40;;;;;;5045272;28;20060;-79
2021/06/29 02:01:34;;;;;;;0.80;0.40;;;13.00;82.60;;;;;;5055978;28;20062;-80
2021/06/29 02:04:00;;;;;;;0.75;0.47;;;13.00;82.80;;;;;;5045670;28;20029;-79
2021/06/29 02:06:25;;;;;;;1.10;0.45;;;13.10;82.40;;;;;;5055873;28;20021;-80
2021/06/29 02:08:51;;;;;;;0.57;0.40;;;13.20;82.30;;;;;;5040712;28;20038;-80
2021/06/29 02:11:17;;;;;;;0.50;0.30;;;13.20;82.00;;;;;;5019407;28;21159;-80
2021/06/29 02:13:42;;;;;;;0.75;0.35;;;13.30;82.10;;;;;;5051774;28;20384;-80
2021/06/29 02:16:09;;;;;;;0.57;0.40;;;13.40;81.60;;;;;;5049435;28;20025;-79
2021/06/29 02:18:44;;;;;;;0.85;0.40;;;13.50;81.20;;;;;;5057274;28;20024;-80
2021/06/29 02:21:12;;;;;;;0.70;0.40;;;13.50;80.80;;;;;;5055366;28;20029;-80
2021/06/29 02:23:38;;;;;;;0.47;0.30;;;13.60;80.40;;;;;;5045292;28;20017;-79
2021/06/29 02:26:03;;;;;;;0.60;0.30;;;13.50;81.00;;;;;;5056907;28;20085;-79
2021/06/29 02:28:29;;;;;;;0.55;0.38;;;13.60;81.00;;;;;;5056797;28;20021;-80
2021/06/29 02:30:55;;;;;;;0.77;0.40;;;13.60;80.70;;;;;;5055588;28;20044;-79
2021/06/29 02:33:20;;;;;;;0.70;0.40;;;13.50;81.40;;;;;;5056796;28;20029;-79
2021/06/29 02:35:51;;;;;;;0.40;0.30;;;13.50;81.70;;;;;;5055279;28;20060;-80
2021/06/29 02:38:16;;;;;;;0.32;0.30;;;13.40;82.30;;;;;;5056637;28;20032;-80
2021/06/29 02:40:42;;;;;;;0.85;0.40;;;13.50;81.70;;;;;;5052179;28;20044;-79
2021/06/29 02:43:08;;;;;;;0.50;0.40;;;13.60;81.60;;;;;;5055185;28;20028;-80
2021/06/29 02:45:33;;;;;;;0.30;0.30;;;13.70;81.20;;;;;;5056276;28;20053;-79
2021/06/29 02:48:01;;;;;;;0.40;0.30;;;13.70;81.10;;;;;;5051849;28;20111;-80
2021/06/29 02:50:27;;;;;;;0.40;0.32;;;13.80;80.50;;;;;;5050513;28;20024;-79
2021/06/29 02:52:53;;;;;;;0.70;0.30;;;13.80;80.90;;;;;;5050943;28;20021;-79
2021/06/29 02:55:19;;;;;;;0.85;0.40;;;13.80;81.70;;;;;;5050873;28;20473;-80
2021/06/29 02:57:45;;;;;;;0.55;0.30;;;13.80;82.00;;;;;;5056343;28;20364;-80
2021/06/29 03:00:15;;;;;;;0.38;0.30;;;13.80;81.90;;;;;;5052568;28;20033;-79
2021/06/29 03:02:40;;;;;;;0.93;0.40;;;13.80;81.30;;;;;;5046738;28;20022;-80
2021/06/29 03:05:07;;;;;;;1.13;0.45;;;13.80;81.50;;;;;;5051123;28;20040;-79
2021/06/29 03:07:33;;;;;;;0.57;0.30;;;13.70;82.90;;;;;;5056137;28;20024;-80
2021/06/29 03:09:58;;;;;;;0.45;0.35;;;13.70;83.30;;;;;;5056018;28;20033;-79
2021/06/29 03:12:24;;;;;;;0.35;0.30;;;13.60;83.20;;;;;;5044828;28;20090;-80
2021/06/29 03:14:55;;;;;;;0.68;0.32;;;13.70;83.20;;;;;;5037661;28;20087;-80
2021/06/29 03:17:21;;;;;;;0.57;0.30;;;13.70;82.90;;;;;;5055965;28;20032;-80
2021/06/29 03:19:46;;;;;;;0.82;0.40;;;13.70;83.20;;;;;;5042294;28;20033;-79
2021/06/29 03:22:12;;;;;;;0.30;0.30;;;13.70;83.30;;;;;;5055779;28;20024;-80
2021/06/29 03:24:38;;;;;;;0.40;0.30;;;13.70;83.20;;;;;;5055701;28;20025;-79
2021/06/29 03:27:07;;;;;;;0.73;0.40;;;13.70;83.00;;;;;;5049674;28;20582;-80
2021/06/29 03:29:34;;;;;;;0.53;0.40;;;13.70;82.90;;;;;;5051274;28;20029;-80
2021/06/29 03:32:00;;;;;;;0.55;0.30;;;13.70;83.30;;;;;;5056090;28;20032;-80
2021/06/29 03:34:25;;;;;;;0.70;0.38;;;13.70;83.20;;;;;;5053631;28;20021;-80
2021/06/29 03:36:51;;;;;;;0.88;0.40;;;13.70;83.80;;;;;;5055574;28;20116;-80
2021/06/29 03:39:18;;;;;;;0.57;0.38;;;13.70;83.80;;;;;;5055274;28;20025;-80
2021/06/29 03:41:45;;;;;;;0.85;0.40;;;13.70;83.20;;;;;;5055465;28;20028;-80
2021/06/29 03:44:13;;;;;;;0.38;0.32;;;13.70;83.30;;;;;;5046318;28;20376;-80
2021/06/29 03:46:39;;;;;;;0.40;0.30;;;13.70;83.20;;;;;;5037337;28;20048;-80
2021/06/29 03:49:05;;;;;;;0.30;0.30;;;13.60;83.80;;;;;;5049615;28;20035;-80
2021/06/29 03:51:31;;;;;;;0.30;0.20;;;13.60;83.70;;;;;;5054009;28;20033;-79
2021/06/29 03:53:57;;;;;;;0.60;0.38;;;13.50;83.80;;;;;;5050689;28;20083;-80
2021/06/29 03:56:29;;;;;;;0.38;0.30;;;13.50;83.90;;;;;;5055164;28;20032;-80
2021/06/29 03:59:09;;;;;;;0.60;0.40;;;13.40;84.10;;;;;;5049453;28;20163;-80
2021/06/29 04:01:38;;;;;;;0.30;0.30;;;13.30;84.40;;;;;;5052632;28;20025;-80
2021/06/29 04:04:04;;;;;;;0.60;0.40;;;13.30;84.60;;;;;;5037044;28;20036;-80
2021/06/29 04:06:33;;;;;;;0.40;0.30;;;13.30;84.70;;;;;;5055296;28;20021;-80
2021/06/29 04:08:59;;;;;;;0.40;0.30;;;13.50;84.20;;;;;;5055067;28;20487;-80
2021/06/29 04:11:27;;;;;;;0.32;0.30;;;13.50;84.40;;;;;;5044723;28;20033;-80
2021/06/29 04:13:53;;;;;;;0.60;0.50;;;13.50;83.90;;;;;;5055204;28;20025;-80
2021/06/29 04:16:20;;;;;;;0.50;0.40;;;13.60;83.90;;;;;;5054862;28;20033;-80
2021/06/29 04:18:46;;;;;;;0.80;0.35;;;13.50;84.10;;;;;;5047312;28;20033;-80
2021/06/29 04:21:13;;;;;;;0.40;0.30;;;13.50;84.00;;;;;;5049305;28;20554;-80
2021/06/29 04:23:39;;;;;;;0.32;0.30;;;13.40;84.50;;;;;;5056938;28;20022;-79
2021/06/29 04:26:05;;;;;;;0.30;0.30;;;13.40;84.20;;;;;;5046993;28;20030;-79
2021/06/29 04:28:31;;;;;;;0.30;0.30;;;13.50;84.30;;;;;;5058463;28;20049;-79
2021/06/29 04:30:57;;;;;;;0.65;0.40;;;13.60;83.80;;;;;;5058869;28;20028;-79
2021/06/29 04:33:23;;;;;;;0.50;0.40;;;13.70;83.40;;;;;;5055127;28;20060;-79
2021/06/29 04:35:49;;;;;;;0.40;0.30;;;13.70;83.80;;;;;;5052258;28;20025;-79
2021/06/29 04:38:15;;;;;;;0.43;0.40;;;13.70;83.40;;;;;;5058938;28;20478;-79
2021/06/29 04:41:01;;;;;;;0.43;0.40;;;13.70;83.50;;;;;;5046168;28;20026;-79
2021/06/29 04:43:26;;;;;;;0.43;0.30;;;13.80;82.80;;;;;;5058827;28;20033;-81
2021/06/29 04:45:52;;;;;;;0.30;0.30;;;13.80;82.60;;;;;;5058524;28;20662;-83
2021/06/29 04:48:18;;;;;;;0.32;0.30;;;13.90;82.60;;;;;;5058968;28;20029;-80
2021/06/29 04:50:45;;;;;;;0.30;0.30;;;13.90;82.60;;;;;;5029931;28;20025;-80
2021/06/29 04:53:10;;;;;;;0.30;0.30;;;14.00;82.10;;;;;;5040188;28;20029;-81
2021/06/29 04:55:36;;;;;;;0.30;0.30;;;14.00;82.20;;;;;;5055505;28;20046;-82
2021/06/29 04:58:02;;;;;;;0.30;0.30;;;14.00;82.30;;;;;;5052667;28;20033;-81
2021/06/29 05:00:27;;;;;;;0.30;0.30;;;14.10;82.30;;;;;;5055311;28;20048;-82
2021/06/29 05:02:53;;;;;;;0.30;0.30;;;14.10;82.00;;;;;;5058387;28;20546;-78
2021/06/29 05:05:20;;;;;;;0.40;0.30;;;14.10;82.00;;;;;;5058408;28;20035;-80
2021/06/29 05:07:47;;;;;;;0.30;0.30;;;14.10;82.00;;;;;;5040871;28;20059;-79
2021/06/29 05:10:14;;;;;;;0.30;0.30;;;14.30;81.80;;;;;;5020633;28;20048;-81
2021/06/29 05:12:40;;;;;;;0.30;0.30;;;14.30;81.50;;;;;;5046687;28;20033;-80
2021/06/29 05:15:08;;;;;;;0.32;0.30;;;14.40;81.50;;;;;;5056226;28;20537;-79
2021/06/29 05:17:34;;;;;;;0.30;0.30;;;14.40;81.40;;;;;;5038952;28;20037;-80
2021/06/29 05:20:00;;;;;;;0.30;0.30;;;14.50;81.50;;;;;;5051535;28;20466;-79
2021/06/29 05:22:25;;;;;;;0.32;0.30;;;14.50;81.30;;;;;;5068985;28;20036;-79
2021/06/29 05:24:51;;;;;;;0.28;0.20;;;14.60;81.00;;;;;;5037494;28;21662;-79
2021/06/29 05:27:16;;;;;;;0.30;0.30;;;14.70;80.70;;;;;;5064421;28;20017;-79
2021/06/29 05:29:42;;;;;;;0.30;0.28;;;14.80;80.20;;;;;;5065941;28;20029;-78
2021/06/29 05:32:08;;;;;;;0.30;0.30;;;14.90;79.80;;;;;;5049865;28;20071;-79
2021/06/29 05:34:34;;;;;;;0.28;0.28;;;14.90;79.90;;;;;;5013815;28;20029;-78
2021/06/29 05:37:00;;;;;;;0.20;0.20;;;14.90;79.90;;;;;;5051306;28;20037;-78
2021/06/29 05:39:25;;;;;;;0.30;0.30;;;14.80;79.80;;;;;;5043158;28;20030;-78
2021/06/29 05:41:51;;;;;;;0.20;0.20;;;14.80;80.20;;;;;;5041591;28;20033;-78
2021/06/29 05:44:17;;;;;;;0.20;0.20;;;14.80;80.10;;;;;;5046891;28;20028;-79
2021/06/29 05:46:42;;;;;;;0.55;0.20;;;14.90;79.80;;;;;;5055043;28;20425;-78
2021/06/29 05:49:14;;;;;;;0.20;0.20;;;14.90;79.70;;;;;;5052422;28;20072;-77
2021/06/29 05:51:45;;;;;;;0.22;0.22;;;15.00;79.80;;;;;;5052084;28;20181;-77
2021/06/29 05:54:10;;;;;;;0.40;0.30;;;14.90;79.70;;;;;;5050043;28;20025;-78
2021/06/29 05:56:36;;;;;;;0.32;0.30;;;14.90;80.30;;;;;;5056299;28;20396;-79
2021/06/29 05:59:02;;;;;;;0.30;0.30;;;14.90;80.20;;;;;;5046083;28;20522;-78
2021/06/29 06:01:27;;;;;;;0.32;0.20;;;14.90;80.00;;;;;;5053790;28;20033;-78
2021/06/29 06:03:53;;;;;;;0.20;0.20;;;14.90;79.80;;;;;;5029675;28;20096;-78
2021/06/29 06:06:19;;;;;;;0.40;0.30;;;14.90;79.70;;;;;;5055902;28;20036;-78
2021/06/29 06:12:38;;;;;;;0.50;0.30;;;14.80;80.10;;;;;;5179940;27;20392;-77
2021/06/29 06:15:05;;;;;;;0.30;0.30;;;14.60;81.00;;;;;;5166091;27;20485;-77
2021/06/29 06:17:31;;;;;;;0.25;0.22;;;14.70;81.00;;;;;;5155212;27;20083;-76
2021/06/29 06:19:56;;;;;;;0.20;0.20;;;15.10;79.90;;;;;;5139919;27;20464;-76
2021/06/29 06:22:22;;;;;;;0.20;0.20;;;15.30;79.40;;;;;;5167607;27;20018;-76
2021/06/29 06:24:48;;;;;;;0.20;0.20;;;15.30;79.80;;;;;;5139088;27;20023;-75
2021/06/29 06:27:15;;;;;;;0.20;0.20;;;15.30;79.60;;;;;;5136395;27;20062;-76
2021/06/29 06:29:41;;;;;;;0.40;0.30;;;15.30;79.20;;;;;;5154035;27;20082;-76
2021/06/29 06:49:27;;;;;;;0.30;0.30;;;14.00;84.00;;;;;;4493238;27;18682796;-80
2021/06/29 06:51:53;;;;;;;0.30;0.30;;;14.00;84.50;;;;;;5131751;27;20027;-76
2021/06/29 06:54:19;;;;;;;0.30;0.30;;;14.30;84.10;;;;;;5148675;27;20049;-76
2021/06/29 06:56:45;;;;;;;0.20;0.20;;;14.80;82.80;;;;;;5127199;27;20519;-76
2021/06/29 06:59:10;;;;;;;0.30;0.30;;;15.20;81.70;;;;;;5134085;27;20015;-73
2021/06/29 07:01:38;;;;;;;0.20;0.20;;;15.90;79.40;;;;;;5140731;27;20027;-73
2021/06/29 07:04:05;;;;;;;0.20;0.20;;;16.50;78.40;;;;;;5134762;27;20500;-73
2021/06/29 07:06:30;;;;;;;0.20;0.20;;;16.90;77.70;;;;;;5139609;27;20030;-71
2021/06/29 07:08:56;;;;;;;0.20;0.20;;;17.10;76.10;;;;;;5148114;27;20027;-73
2021/06/29 07:11:22;;;;;;;0.20;0.20;;;17.20;75.80;;;;;;5141275;27;20079;-73
2021/06/29 07:13:47;;;;;;;0.10;0.10;;;17.50;75.60;;;;;;5140126;27;20156;-73
2021/06/29 07:16:13;;;;;;;0.20;0.20;;;17.30;75.00;;;;;;5140066;27;20027;-73
2021/06/29 07:18:39;;;;;;;0.30;0.20;;;17.30;75.20;;;;;;5142477;27;20034;-76
2021/06/29 07:21:05;;;;;;;0.20;0.20;;;17.30;75.10;;;;;;5143428;27;20027;-75
2021/06/29 07:23:31;;;;;;;0.10;0.10;;;17.30;74.40;;;;;;5142884;27;20027;-73
2021/06/29 07:25:57;;;;;;;0.20;0.20;;;17.40;74.70;;;;;;5138622;27;20023;-75
2021/06/29 07:28:22;;;;;;;0.20;0.10;;;17.60;74.70;;;;;;5145065;27;20037;-74
2021/06/29 07:30:48;;;;;;;0.20;0.20;;;17.70;74.60;;;;;;5144277;27;20023;-74
2021/06/29 07:33:14;;;;;;;0.20;0.20;;;17.70;73.40;;;;;;5138243;27;20449;-74
2021/06/29 07:35:40;;;;;;;0.20;0.20;;;17.80;73.90;;;;;;5144287;27;20019;-75
2021/06/29 07:38:07;;;;;;;0.15;0.15;;;18.00;73.90;;;;;;5142465;27;20058;-75
2021/06/29 07:40:33;;;;;;;0.20;0.20;;;18.20;72.10;;;;;;5143654;27;20075;-75
2021/06/29 07:43:00;;;;;;;0.13;0.10;;;18.20;72.50;;;;;;5146092;27;20027;-74
2021/06/29 07:45:28;;;;;;;0.10;0.10;;;18.30;72.80;;;;;;5143184;27;20027;-75
2021/06/29 07:47:55;;;;;;;0.20;0.20;;;18.10;73.30;;;;;;5142603;27;20064;-76
2021/06/29 07:50:21;;;;;;;0.20;0.20;;;18.00;73.20;;;;;;5144226;27;20053;-76
2021/06/29 07:52:47;;;;;;;0.10;0.10;;;18.00;73.00;;;;;;5140992;27;20406;-76
2021/06/29 07:55:13;;;;;;;0.17;0.10;;;17.80;73.50;;;;;;5145791;27;20106;-76
2021/06/29 07:57:39;;;;;;;0.15;0.15;;;18.00;73.70;;;;;;5144991;27;20031;-75
2021/06/29 08:00:08;;;;;;;0.20;0.20;;;18.00;71.10;;;;;;5137917;27;20037;-76
2021/06/29 08:02:33;;;;;;;0.10;0.10;;;18.70;72.00;;;;;;5129530;27;20515;-75
2021/06/29 08:04:59;;;;;;;0.10;0.10;;;19.30;71.10;;;;;;5129476;27;20027;-74
2021/06/29 08:07:27;;;;;;;0.28;0.20;;;20.40;66.60;;;;;;5128740;27;20458;-74
2021/06/29 08:09:53;;;;;;;0.20;0.20;;;21.00;64.70;;;;;;5129852;27;20034;-74
2021/06/29 08:12:18;;;;;;;0.10;0.10;;;21.40;62.90;;;;;;5130416;27;20023;-74
2021/06/29 08:14:44;;;;;;;0.10;0.10;;;21.10;63.50;;;;;;5132018;27;20034;-74
2021/06/29 08:17:10;;;;;;;0.10;0.10;;;20.90;65.40;;;;;;5128577;27;20015;-74
2021/06/29 08:19:39;;;;;;;0.20;0.10;;;20.80;65.70;;;;;;5126849;27;20027;-74
2021/06/29 08:22:05;;;;;;;3.67;0.85;;;21.10;65.20;;;;;;5129842;27;20015;-75
2021/06/29 08:24:32;;;;;;;0.65;0.20;;;21.20;65.00;;;;;;5127937;27;20303;-73
2021/06/29 08:26:58;;;;;;;4.78;1.15;;;21.40;65.40;;;;;;5129743;27;20051;-79
2021/06/29 08:29:24;;;;;;;0.10;0.10;;;22.20;62.80;;;;;;5128050;27;20030;-78
2021/06/29 08:31:50;;;;;;;0.10;0.10;;;23.20;60.80;;;;;;5131210;27;20025;-78
2021/06/29 08:34:16;;;;;;;0.03;0.00;;;23.10;59.20;;;;;;5126386;27;20401;-78
2021/06/29 08:36:42;;;;;;;0.30;0.10;;;23.30;57.30;;;;;;5131144;27;20094;-78
2021/06/29 08:39:14;;;;;;;0.10;0.10;;;24.60;56.50;;;;;;5129456;27;20051;-79
2021/06/29 08:41:42;;;;;;;0.10;0.10;;;26.60;51.50;;;;;;5129530;27;20015;-79
2021/06/29 08:44:08;;;;;;;0.00;0.00;;;28.20;44.80;;;;;;5130491;27;20058;-79
2021/06/29 08:46:35;;;;;;;0.10;0.10;;;29.30;43.30;;;;;;5128968;27;20032;-79
2021/06/29 08:49:02;;;;;;;0.00;0.00;;;29.80;39.20;;;;;;5125116;27;20096;-79
2021/06/29 08:51:29;;;;;;;0.13;0.10;;;30.90;40.30;;;;;;5128118;27;20781;-79
2021/06/29 08:53:55;;;;;;;0.10;0.10;;;31.50;37.70;;;;;;5125262;27;20182;-80
2021/06/29 08:56:20;;;;;;;0.00;0.00;;;31.30;37.70;;;;;;5126896;27;20171;-86
2021/06/29 08:58:46;;;;;;;0.05;0.00;;;31.90;36.90;;;;;;5131188;27;20031;-80
2021/06/29 09:01:12;;;;;;;0.10;0.10;;;32.30;35.30;;;;;;5122623;27;20048;-86
2021/06/29 09:03:39;;;;;;;0.00;0.00;;;32.90;36.30;;;;;;5125909;27;20027;-84
2021/06/29 09:06:05;;;;;;;0.00;0.00;;;32.90;33.50;;;;;;5126759;27;20050;-83
2021/06/29 09:08:38;;;;;;;0.00;0.00;;;32.40;33.10;;;;;;5130298;27;20059;-83
2021/06/29 09:11:19;;;;;;;0.10;0.10;;;32.30;35.20;;;;;;5127735;27;20046;-83
2021/06/29 09:14:13;;;;;;;0.10;0.10;;;32.30;35.80;;;;;;5133848;27;20031;-83
2021/06/29 09:16:39;;;;;;;0.10;0.10;;;32.80;33.60;;;;;;5127346;27;20019;-94
2021/06/29 09:19:05;;;;;;;0.00;0.00;;;33.00;35.30;;;;;;5124562;27;20015;-93
2021/06/29 09:21:36;;;;;;;0.10;0.10;;;33.20;32.70;;;;;;5132572;27;20523;-88
2021/06/29 09:24:04;;;;;;;0.00;0.00;;;33.60;33.00;;;;;;5118221;27;20053;-89
2021/06/29 09:26:30;;;;;;;0.00;0.00;;;34.00;32.00;;;;;;5121670;27;20064;-87
2021/06/29 09:28:58;;;;;;;0.10;0.10;;;33.50;31.00;;;;;;5124765;27;20031;-70
2021/06/29 09:31:28;;;;;;;0.10;0.10;;;33.80;31.70;;;;;;5128224;27;20022;-69
2021/06/29 09:34:07;;;;;;;0.00;0.00;;;33.80;31.10;;;;;;5128535;27;20035;-71
2021/06/29 09:36:36;;;;;;;0.05;0.05;;;33.20;32.10;;;;;;5132481;27;20023;-69
2021/06/29 09:39:14;;;;;;;0.10;0.10;;;33.00;31.80;;;;;;5121187;27;20028;-70
2021/06/29 09:41:41;;;;;;;0.10;0.10;;;33.40;32.50;;;;;;5121394;27;20024;-70
2021/06/29 09:44:24;;;;;;;0.10;0.10;;;33.20;31.90;;;;;;5131281;27;20495;-87
2021/06/29 09:46:50;;;;;;;0.00;0.00;;;33.50;30.80;;;;;;5128837;27;20436;-92
2021/06/29 09:49:16;;;;;;;0.20;0.00;;;34.30;31.30;;;;;;5116865;28;20079;-88
2021/06/29 09:51:49;;;;;;;0.00;0.00;;;33.90;31.50;;;;;;5119437;27;20040;-88
2021/06/29 09:54:15;;;;;;;0.00;0.00;;;32.60;33.60;;;;;;5129245;27;20062;-90
2021/06/29 09:56:44;;;;;;;0.00;0.00;;;31.20;34.40;;;;;;5129100;27;20007;-91
2021/06/29 09:59:13;;;;;;;;;;;29.80;37.80;;;;;;5123056;27;20028;-92
2021/06/29 10:01:39;;;;;;;0.00;0.00;;;28.90;37.40;;;;;;5127801;27;19903;-90
2021/06/29 10:04:05;;;;;;;0.25;0.20;;;28.20;38.70;;;;;;5123929;27;20111;-92
2021/06/29 10:06:34;;;;;;;0.52;0.10;;;29.30;39.30;;;;;;5132758;27;20035;-92
2021/06/29 10:09:07;;;;;;;0.10;0.10;;;30.60;36.60;;;;;;5126058;27;20039;-91
2021/06/29 10:11:43;;;;;;;0.10;0.10;;;31.60;34.50;;;;;;5135128;27;20023;-91
2021/06/29 10:14:15;;;;;;;0.10;0.10;;;32.20;31.70;;;;;;5134151;27;20034;-92
2021/06/29 10:16:45;;;;;;;0.00;0.00;;;32.80;33.00;;;;;;5131846;27;20027;-96
2021/06/29 10:22:01;;;;;;;0.00;0.00;;;32.70;32.50;;;;;;5136444;27;20027;-94
2021/06/29 10:24:29;;;;;;;0.00;0.00;;;31.30;34.00;;;;;;5125441;27;20028;-93
2021/06/29 10:26:57;;;;;;;0.20;0.00;;;30.10;36.10;;;;;;5131579;27;20122;-94
2021/06/29 10:29:25;;;;;;;0.05;0.00;;;29.30;37.10;;;;;;5124074;27;20442;-94
2021/06/29 10:31:56;;;;;;;0.05;0.00;;;28.80;38.60;;;;;;5128841;27;20082;-94
2021/06/29 10:34:24;;;;;;;0.10;0.00;;;28.30;39.30;;;;;;5128867;27;20035;-94
2021/06/29 10:36:52;;;;;;;0.10;0.00;;;27.90;41.10;;;;;;5132601;27;20027;-95
2021/06/29 10:39:23;;;;;;;0.03;0.00;;;27.40;40.50;;;;;;5142023;27;20031;-94
2021/06/29 10:41:53;;;;;;;0.00;0.00;;;27.20;41.80;;;;;;5139815;27;20495;-95
2021/06/29 10:44:22;;;;;;;0.00;0.00;;;27.20;41.80;;;;;;5145797;27;20023;-94
2021/06/29 10:46:51;;;;;;;0.00;0.00;;;27.60;38.80;;;;;;5140771;28;20020;-94
2021/06/29 10:49:33;;;;;;;0.05;0.00;;;28.00;40.10;;;;;;5111322;28;20044;-94
2021/06/29 10:52:26;;;;;;;0.00;0.00;;;28.20;40.00;;;;;;5148965;28;20030;-94
2021/06/29 10:55:03;;;;;;;0.30;0.10;;;28.00;42.70;;;;;;5126287;28;20035;-82
2021/06/29 10:57:42;;;;;;;0.00;0.00;;;27.80;41.30;;;;;;5123451;28;20023;-82
2021/06/29 11:00:34;;;;;;;0.10;0.10;;;27.20;42.90;;;;;;5133430;27;20117;-83
2021/06/29 11:03:02;;;;;;;0.00;0.00;;;27.20;42.90;;;;;;5110022;28;20521;-82
2021/06/29 11:05:44;;;;;;;0.05;0.00;;;27.30;40.90;;;;;;5114018;28;20105;-82
2021/06/29 11:08:17;;;;;;;0.10;0.10;;;27.00;42.10;;;;;;5115300;28;20036;-82
2021/06/29 11:10:47;;;;;;;0.17;0.10;;;27.10;44.10;;;;;;5123533;28;20556;-82
2021/06/29 11:13:14;;;;;;;0.10;0.10;;;27.20;40.30;;;;;;5134668;27;20610;-83
2021/06/29 11:15:49;;;;;;;0.10;0.10;;;27.20;40.40;;;;;;5136136;27;20481;-82
2021/06/29 11:18:16;;;;;;;0.10;0.00;;;27.30;41.60;;;;;;5115352;27;20024;-83
2021/06/29 11:20:48;;;;;;;0.40;0.10;;;27.00;39.10;;;;;;5124021;28;20411;-83
2021/06/29 11:23:26;;;;;;;0.05;0.05;;;26.80;39.60;;;;;;5120108;27;20015;-83
2021/06/29 11:25:56;;;;;;;0.00;0.00;;;27.20;41.70;;;;;;5134225;27;20076;-83
2021/06/29 11:28:31;;;;;;;0.00;0.00;;;26.80;42.20;;;;;;5114988;28;20024;-83
2021/06/29 11:31:06;;;;;;;0.00;0.00;;;26.50;40.70;;;;;;5126927;28;20015;-83
2021/06/29 11:33:38;;;;;;;0.08;0.03;;;25.80;41.90;;;;;;5116757;28;20077;-83
2021/06/29 11:36:05;;;;;;;0.10;0.08;;;26.10;42.60;;;;;;5118455;28;20031;-83
2021/06/29 11:38:32;;;;;;;0.10;0.10;;;26.10;44.00;;;;;;5118843;27;20028;-83
2021/06/29 11:41:33;;;;;;;0.00;0.00;;;26.10;43.10;;;;;;5129497;27;20035;-83
2021/06/29 11:44:08;;;;;;;0.10;0.03;;;25.80;43.70;;;;;;5130488;27;20024;-82
2021/06/29 11:47:05;;;;;;;0.03;0.00;;;25.80;45.30;;;;;;5117463;28;20035;-83
2021/06/29 11:49:45;;;;;;;0.00;0.00;;;25.40;45.60;;;;;;5121644;27;20401;-85
2021/06/29 11:52:13;;;;;;;0.00;0.00;;;25.30;46.00;;;;;;5126851;27;20039;-85
2021/06/29 11:55:01;;;;;;;0.10;0.10;;;24.90;47.30;;;;;;5127669;27;20530;-85
2021/06/29 11:57:38;;;;;;;0.00;0.00;;;24.90;46.80;;;;;;5126573;27;20075;-85
2021/06/29 12:00:32;;;;;;;0.10;0.10;;;24.80;47.30;;;;;;5129541;27;20055;-87
2021/06/29 12:03:22;;;;;;;0.15;0.10;;;25.30;47.60;;;;;;5121773;27;20027;-87
2021/06/29 12:05:48;;;;;;;0.10;0.10;;;25.40;47.80;;;;;;5123279;27;20067;-88
2021/06/29 12:08:14;;;;;;;0.00;0.00;;;25.60;46.50;;;;;;5121509;27;20544;-88
2021/06/29 12:10:41;;;;;;;0.00;0.00;;;25.50;45.70;;;;;;5127870;27;20099;-87
2021/06/29 12:13:09;;;;;;;0.10;0.10;;;25.40;46.00;;;;;;5124487;27;20027;-88
2021/06/29 12:15:40;;;;;;;0.20;0.10;;;25.20;46.80;;;;;;5127101;27;20062;-88
2021/06/29 12:18:09;;;;;;;0.00;0.00;;;25.30;47.70;;;;;;5133027;27;20039;-88
2021/06/29 12:20:50;;;;;;;0.00;0.00;;;25.30;47.90;;;;;;5131825;27;20045;-88
2021/06/29 12:23:21;;;;;;;0.10;0.10;;;25.30;48.70;;;;;;5126046;27;20058;-89
2021/06/29 12:25:56;;;;;;;0.10;0.10;;;25.10;47.40;;;;;;5131974;27;20012;-90
2021/06/29 12:28:30;;;;;;;0.10;0.10;;;25.10;49.10;;;;;;5123762;27;20035;-89
2021/06/29 12:31:03;;;;;;;0.00;0.00;;;25.20;48.90;;;;;;5135289;27;20086;-88
2021/06/29 12:33:34;;;;;;;0.25;0.10;;;25.20;47.70;;;;;;5130745;27;20076;-89
2021/06/29 12:36:09;;;;;;;0.10;0.10;;;25.00;49.50;;;;;;5132316;27;20358;-88
2021/06/29 12:39:00;;;;;;;0.08;0.08;;;24.90;49.00;;;;;;5127162;27;20081;-88
2021/06/29 12:41:27;;;;;;;0.00;0.00;;;24.50;46.30;;;;;;5123847;27;20107;-90
2021/06/29 12:43:54;;;;;;;0.00;0.00;;;24.60;47.90;;;;;;5135941;27;20031;-87
2021/06/29 12:46:23;;;;;;;0.00;0.00;;;24.50;48.30;;;;;;5126323;27;20110;-88
2021/06/29 12:49:07;;;;;;;0.10;0.10;;;24.40;49.10;;;;;;5128925;27;20039;-88
2021/06/29 12:51:38;;;;;;;0.00;0.00;;;24.50;48.90;;;;;;5130041;27;20031;-88
2021/06/29 12:54:08;;;;;;;0.10;0.10;;;24.50;48.30;;;;;;5127476;27;20419;-89
2021/06/29 12:56:40;;;;;;;0.10;0.10;;;24.50;49.20;;;;;;5132545;27;20035;-89
2021/06/29 12:59:08;;;;;;;0.00;0.00;;;24.40;48.90;;;;;;5130316;27;20497;-88
2021/06/29 13:01:37;;;;;;;0.10;0.10;;;24.50;48.60;;;;;;5128643;27;20034;-88
2021/06/29 13:04:08;;;;;;;0.20;0.10;;;24.30;47.60;;;;;;5126898;27;20385;-89
2021/06/29 13:06:35;;;;;;;0.00;0.00;;;24.30;49.00;;;;;;5133386;27;20269;-88
2021/06/29 13:09:15;;;;;;;0.10;0.08;;;24.70;49.00;;;;;;5129109;27;20027;-87
2021/06/29 13:11:57;;;;;;;0.10;0.10;;;25.00;46.90;;;;;;5128432;27;20418;-88
2021/06/29 13:14:23;;;;;;;0.10;0.10;;;25.20;47.90;;;;;;5132268;27;20449;-88
2021/06/29 13:17:02;;;;;;;0.10;0.10;;;25.00;47.40;;;;;;5121692;27;20027;-89
2021/06/29 13:19:28;;;;;;;0.10;0.10;;;25.00;48.00;;;;;;5112942;27;20067;-88
2021/06/29 13:21:56;;;;;;;0.10;0.10;;;24.70;46.80;;;;;;5126029;27;20098;-88
2021/06/29 13:24:23;;;;;;;0.00;0.00;;;24.40;46.80;;;;;;5123653;27;21385;-88